createdAt,value
2022-11-18T00:01:18.387Z,3.78
2022-11-18T00:03:52.638Z,2.50
2022-11-18T00:06:28.697Z,4.88
2022-11-18T00:09:01.812Z,6.07
2022-11-18T00:11:53.142Z,3.03
2022-11-18T00:14:27.594Z,1.45
2022-11-18T00:17:03.800Z,4.20
2022-11-18T00:22:13.372Z,3.35
2022-11-18T00:24:45.945Z,3.35
2022-11-18T00:27:18.495Z,2.03
2022-11-18T00:29:51.095Z,4.82
2022-11-18T00:32:24.011Z,3.03
2022-11-18T00:34:56.616Z,4.22
2022-11-18T00:37:29.175Z,2.78
2022-11-18T00:40:02.505Z,3.17
2022-11-18T00:42:53.737Z,8.98
2022-11-18T00:45:26.322Z,7.32
2022-11-18T00:47:58.943Z,6.20
2022-11-18T00:50:33.457Z,5.03
2022-11-18T00:53:06.087Z,4.22
2022-11-18T00:55:38.657Z,4.90
2022-11-18T00:58:14.477Z,4.25
2022-11-18T01:00:52.734Z,2.97
2022-11-18T01:03:25.839Z,5.75
2022-11-18T01:05:58.498Z,5.10
2022-11-18T01:08:31.197Z,3.65
2022-11-18T01:11:22.367Z,3.67
2022-11-18T01:13:55.674Z,2.28
2022-11-18T01:16:29.602Z,3.78
2022-11-18T01:19:02.298Z,3.88
2022-11-18T01:21:34.840Z,7.30
2022-11-18T01:24:07.614Z,3.95
2022-11-18T01:26:40.178Z,3.10
2022-11-18T01:29:12.847Z,4.75
2022-11-18T01:32:09.265Z,3.78
2022-11-18T01:34:38.054Z,6.72
2022-11-18T01:37:10.656Z,4.63
2022-11-18T01:39:43.174Z,4.07
2022-11-18T01:42:17.525Z,3.53
2022-11-18T01:45:09.555Z,2.67
2022-11-18T01:47:51.725Z,2.80
2022-11-18T01:50:26.038Z,4.18
2022-11-18T01:53:07.326Z,2.95
2022-11-18T01:55:46.338Z,3.03
2022-11-18T01:58:29.849Z,4.50
2022-11-18T02:01:05.589Z,4.00
2022-11-18T02:03:39.682Z,5.15
2022-11-18T02:06:13.917Z,3.38
2022-11-18T02:08:47.016Z,2.60
2022-11-18T02:11:38.502Z,3.25
2022-11-18T02:14:11.733Z,2.92
2022-11-18T02:17:04.355Z,2.17
2022-11-18T02:19:46.172Z,3.30
2022-11-18T02:22:40.407Z,3.78
2022-11-18T02:25:24.540Z,3.63
2022-11-18T02:28:31.705Z,5.88
2022-11-18T02:31:20.862Z,7.88
2022-11-18T02:34:22.807Z,2.72
2022-11-18T02:37:17.880Z,6.22
2022-11-18T02:40:02.088Z,3.13
2022-11-18T02:42:39.325Z,5.63
2022-11-18T02:45:18.482Z,5.57
2022-11-18T02:47:52.990Z,5.13
2022-11-18T02:50:29.987Z,5.35
2022-11-18T02:53:08.356Z,2.33
2022-11-18T02:55:44.324Z,3.55
2022-11-18T02:58:21.314Z,1.95
2022-11-18T03:01:01.130Z,5.47
2022-11-18T03:03:36.875Z,3.00
2022-11-18T03:06:30.134Z,3.22
2022-11-18T03:09:29.994Z,3.13
2022-11-18T03:12:35.245Z,2.13
2022-11-18T03:15:34.359Z,6.50
2022-11-18T03:18:47.269Z,5.50
2022-11-18T03:21:39.439Z,3.03
2022-11-18T03:24:34.660Z,2.72
2022-11-18T03:27:24.220Z,2.05
2022-11-18T03:30:11.013Z,1.42
2022-11-18T03:32:59.114Z,3.42
2022-11-18T03:35:42.107Z,3.15
2022-11-18T03:38:32.131Z,3.05
2022-11-18T03:41:14.218Z,2.17
2022-11-18T03:44:01.776Z,2.83
2022-11-18T03:46:52.410Z,4.15
2022-11-18T03:49:43.146Z,5.82
2022-11-18T03:52:30.427Z,4.82
2022-11-18T03:55:13.842Z,3.47
2022-11-18T03:58:09.730Z,5.13
2022-11-18T04:00:49.843Z,4.47
2022-11-18T04:03:25.938Z,3.47
2022-11-18T04:09:17.398Z,4.63
2022-11-18T04:12:02.875Z,4.78
2022-11-18T04:14:39.359Z,4.07
2022-11-18T04:17:17.021Z,3.08
2022-11-18T04:19:50.116Z,2.17
2022-11-18T04:22:25.583Z,5.32
2022-11-18T04:24:58.203Z,9.52
2022-11-18T04:27:33.505Z,6.15
2022-11-18T04:30:08.019Z,6.28
2022-11-18T04:32:43.207Z,3.33
2022-11-18T04:35:19.142Z,2.80
2022-11-18T04:37:52.044Z,9.20
2022-11-18T04:40:24.776Z,5.20
2022-11-18T04:42:58.786Z,6.35
2022-11-18T04:45:31.550Z,5.95
2022-11-18T04:48:04.531Z,5.45
2022-11-18T04:50:40.202Z,4.55
2022-11-18T04:53:12.864Z,4.70
2022-11-18T04:55:45.510Z,7.03
2022-11-18T04:58:18.239Z,4.05
2022-11-18T05:00:51.257Z,5.75
2022-11-18T05:03:26.618Z,2.97
2022-11-18T05:06:05.166Z,4.90
2022-11-18T05:08:38.050Z,7.07
2022-11-18T05:11:32.298Z,7.32
2022-11-18T05:14:05.605Z,8.95
2022-11-18T05:16:38.195Z,5.80
2022-11-18T05:19:11.442Z,5.55
2022-11-18T05:21:44.030Z,7.07
2022-11-18T05:24:17.505Z,5.45
2022-11-18T05:26:52.399Z,5.70
2022-11-18T05:29:25.157Z,5.85
2022-11-18T05:31:57.889Z,5.40
2022-11-18T05:34:30.585Z,3.88
2022-11-18T05:37:03.247Z,3.83
2022-11-18T05:39:36.135Z,4.70
2022-11-18T05:42:28.713Z,9.30
2022-11-18T05:45:01.374Z,3.28
2022-11-18T05:47:54.067Z,6.28
2022-11-18T05:50:26.933Z,8.00
2022-11-18T05:52:59.780Z,3.55
2022-11-18T05:55:57.005Z,5.38
2022-11-18T05:58:32.742Z,3.33
2022-11-18T06:01:07.708Z,10.27
2022-11-18T06:03:43.857Z,3.63
2022-11-18T06:06:25.065Z,5.45
2022-11-18T06:09:07.428Z,3.70
2022-11-18T06:11:52.376Z,3.00
2022-11-18T06:14:48.619Z,6.80
2022-11-18T06:17:37.021Z,4.78
2022-11-18T06:20:10.649Z,5.00
2022-11-18T06:22:46.592Z,6.55
2022-11-18T06:27:59.967Z,4.32
2022-11-18T06:30:34.644Z,3.88
2022-11-18T06:33:12.740Z,6.13
2022-11-18T06:35:48.065Z,8.50
2022-11-18T06:38:26.336Z,4.47
2022-11-18T06:41:04.984Z,8.85
2022-11-18T06:43:44.365Z,6.80
2022-11-18T06:46:39.480Z,7.40
2022-11-18T06:49:13.913Z,6.55
2022-11-18T06:51:49.689Z,3.40
2022-11-18T06:54:29.477Z,4.43
2022-11-18T06:57:03.520Z,7.07
2022-11-18T06:59:38.756Z,4.47
2022-11-18T07:02:22.581Z,6.15
2022-11-18T07:04:57.472Z,5.10
2022-11-18T07:07:44.996Z,4.30
2022-11-18T07:10:24.179Z,5.57
2022-11-18T07:13:02.646Z,7.20
2022-11-18T07:15:39.932Z,7.47
2022-11-18T07:18:14.676Z,9.02
2022-11-18T07:20:55.181Z,3.05
2022-11-18T07:23:41.923Z,5.25
2022-11-18T07:26:16.331Z,11.82
2022-11-18T07:28:51.973Z,7.82
2022-11-18T07:31:25.314Z,5.85
2022-11-18T07:34:01.303Z,4.35
2022-11-18T07:36:37.235Z,4.55
2022-11-18T07:43:18.852Z,7.28
2022-11-18T07:46:28.326Z,4.45
2022-11-18T07:52:49.628Z,6.78
2022-11-18T07:56:18.654Z,7.03
2022-11-18T07:59:51.701Z,5.60
2022-11-18T08:02:24.637Z,4.07
2022-11-18T08:08:43.074Z,5.85
2022-11-18T08:11:26.612Z,4.82
2022-11-18T08:14:14.937Z,4.53
2022-11-18T08:16:54.461Z,5.32
2022-11-18T08:19:45.003Z,3.78
2022-11-18T08:22:35.381Z,7.38
2022-11-18T08:25:25.999Z,4.93
2022-11-18T08:28:22.624Z,6.75
2022-11-18T08:30:56.789Z,4.25
2022-11-18T08:33:49.801Z,5.85
2022-11-18T08:37:15.534Z,5.32
2022-11-18T08:40:48.819Z,13.63
2022-11-18T08:48:28.023Z,5.40
2022-11-18T08:51:26.650Z,7.32
2022-11-18T08:57:30.961Z,8.73
2022-11-18T09:00:17.241Z,5.63
2022-11-18T09:02:57.174Z,7.65
2022-11-18T09:05:39.243Z,6.55
2022-11-18T09:08:21.501Z,8.10
2022-11-18T09:11:12.040Z,6.07
2022-11-18T09:17:13.177Z,5.82
2022-11-18T09:23:26.486Z,4.55
2022-11-18T09:29:17.374Z,5.07
2022-11-18T09:31:59.996Z,5.65
2022-11-18T09:37:24.401Z,4.63
2022-11-18T09:40:04.437Z,7.72
2022-11-18T09:43:02.386Z,6.35
2022-11-18T09:46:20.812Z,10.68
2022-11-18T09:52:35.775Z,6.95
2022-11-18T09:55:54.390Z,6.03
2022-11-18T09:58:47.858Z,6.13
2022-11-18T10:01:40.836Z,7.43
2022-11-18T10:04:38.328Z,4.78
2022-11-18T10:07:55.096Z,3.00
2022-11-18T10:11:31.280Z,7.72
2022-11-18T10:15:15.762Z,3.17
2022-11-18T10:18:52.781Z,4.90
2022-11-18T10:22:15.667Z,9.93
2022-11-18T10:25:40.139Z,4.57
2022-11-18T10:28:39.224Z,5.15
2022-11-18T10:31:26.433Z,5.50
2022-11-18T10:34:08.416Z,6.03
2022-11-18T10:37:20.244Z,5.55
2022-11-18T10:40:08.580Z,4.05
2022-11-18T10:43:17.001Z,1.98
2022-11-18T10:46:03.974Z,5.13
2022-11-18T10:49:15.817Z,4.63
2022-11-18T10:52:25.844Z,4.40
2022-11-18T10:55:48.133Z,7.38
2022-11-18T11:02:10.014Z,7.53
2022-11-18T11:05:05.078Z,7.15
2022-11-18T11:07:45.482Z,4.78
2022-11-18T11:10:39.809Z,6.72
2022-11-18T11:13:26.763Z,7.07
2022-11-18T11:16:13.616Z,4.30
2022-11-18T11:19:07.060Z,8.15
2022-11-18T11:21:42.481Z,5.03
2022-11-18T11:24:31.800Z,7.90
2022-11-18T11:31:03.949Z,3.42
2022-11-18T11:34:16.108Z,4.97
2022-11-18T11:37:32.438Z,4.05
2022-11-18T11:40:27.272Z,3.17
2022-11-18T11:43:24.790Z,7.35
2022-11-18T11:47:10.626Z,6.50
2022-11-18T11:49:56.064Z,5.05
2022-11-18T11:53:04.894Z,6.85
2022-11-18T11:56:38.348Z,2.35
2022-11-18T11:59:37.430Z,3.85
2022-11-18T12:06:23.932Z,8.50
2022-11-18T12:09:28.249Z,9.05
2022-11-18T12:13:11.148Z,5.40
2022-11-18T12:16:18.502Z,6.65
2022-11-18T12:19:13.031Z,3.88
2022-11-18T12:21:45.757Z,5.03
2022-11-18T12:24:33.479Z,7.30
2022-11-18T12:27:39.845Z,2.55
2022-11-18T12:30:19.382Z,6.22
2022-11-18T12:32:57.835Z,9.90
2022-11-18T12:35:36.885Z,4.05
2022-11-18T12:38:30.309Z,5.80
2022-11-18T12:41:22.850Z,4.93
2022-11-18T12:44:01.223Z,5.05
2022-11-18T12:46:45.424Z,6.68
2022-11-18T12:49:21.477Z,4.55
2022-11-18T12:52:01.045Z,5.38
2022-11-18T12:54:48.126Z,5.22
2022-11-18T12:57:28.238Z,5.07
2022-11-18T13:00:24.960Z,5.55
2022-11-18T13:03:01.482Z,6.13
2022-11-18T13:05:35.148Z,6.95
2022-11-18T13:08:18.674Z,6.38
2022-11-18T13:11:35.875Z,3.40
2022-11-18T13:15:07.942Z,5.30
2022-11-18T13:17:51.861Z,7.60
2022-11-18T13:20:35.608Z,4.03
2022-11-18T13:23:32.936Z,7.22
2022-11-18T13:26:22.234Z,7.88
2022-11-18T13:29:12.161Z,4.85
2022-11-18T13:32:03.028Z,10.93
2022-11-18T13:34:55.442Z,5.47
2022-11-18T13:37:34.309Z,4.18
2022-11-18T13:40:28.843Z,12.52
2022-11-18T13:43:01.660Z,10.35
2022-11-18T13:45:35.163Z,3.28
2022-11-18T13:48:14.012Z,7.93
2022-11-18T13:50:56.202Z,8.27
2022-11-18T13:53:40.348Z,6.65
2022-11-18T13:56:34.453Z,7.75
2022-11-18T13:59:22.354Z,9.65
2022-11-18T14:01:59.932Z,4.18
2022-11-18T14:04:33.169Z,10.77
2022-11-18T14:07:33.795Z,10.32
2022-11-18T14:10:09.000Z,10.20
2022-11-18T14:12:42.016Z,6.55
2022-11-18T14:15:37.950Z,8.05
2022-11-18T14:18:35.903Z,10.18
2022-11-18T14:21:12.869Z,8.75
2022-11-18T14:23:46.134Z,3.40
2022-11-18T14:26:28.354Z,11.55
2022-11-18T14:29:17.552Z,4.15
2022-11-18T14:32:16.878Z,3.17
2022-11-18T14:35:02.082Z,4.22
2022-11-18T14:37:34.829Z,4.53
2022-11-18T14:40:14.044Z,6.55
2022-11-18T14:42:46.809Z,5.60
2022-11-18T14:45:19.566Z,8.48
2022-11-18T14:47:52.848Z,4.35
2022-11-18T14:50:25.404Z,3.00
2022-11-18T14:52:57.985Z,9.18
2022-11-18T14:55:30.784Z,4.03
2022-11-18T14:58:03.667Z,3.20
2022-11-18T15:00:36.452Z,4.25
2022-11-18T15:03:11.857Z,5.05
2022-11-18T15:05:45.058Z,3.88
2022-11-18T15:08:20.461Z,2.85
2022-11-18T15:10:53.203Z,4.72
2022-11-18T15:13:29.154Z,2.10
2022-11-18T15:18:46.719Z,3.75
2022-11-18T15:21:20.903Z,6.05
2022-11-18T15:23:54.485Z,3.88
2022-11-18T15:26:36.109Z,4.68
2022-11-18T15:29:24.619Z,5.35
2022-11-18T15:32:14.234Z,3.22
2022-11-18T15:34:55.812Z,4.93
2022-11-18T15:42:31.924Z,4.25
2022-11-18T15:45:30.002Z,4.55
2022-11-18T15:51:53.038Z,3.75
2022-11-18T15:54:57.455Z,4.07
2022-11-18T15:57:36.300Z,3.47
2022-11-18T16:00:11.952Z,3.03
2022-11-18T16:02:45.107Z,2.80
2022-11-18T16:05:27.275Z,3.38
2022-11-18T16:08:00.584Z,6.22
2022-11-18T16:10:58.040Z,6.10
2022-11-18T16:13:33.517Z,3.60
2022-11-18T16:16:15.672Z,8.05
2022-11-18T16:18:54.888Z,5.05
2022-11-18T16:21:33.565Z,6.28
2022-11-18T16:24:16.623Z,4.57
2022-11-18T16:26:55.942Z,5.70
2022-11-18T16:29:28.535Z,6.05
2022-11-18T16:32:03.921Z,6.55
2022-11-18T16:34:53.198Z,8.52
2022-11-18T16:37:40.412Z,6.05
2022-11-18T16:40:15.951Z,5.47
2022-11-18T16:42:54.374Z,8.68
2022-11-18T16:45:34.091Z,5.80
2022-11-18T16:48:24.810Z,8.32
2022-11-18T16:51:23.595Z,9.55
2022-11-18T16:54:03.051Z,24.80
2022-11-18T16:56:41.437Z,10.13
2022-11-18T16:59:30.790Z,6.60
2022-11-18T17:02:09.422Z,7.80
2022-11-18T17:04:45.724Z,7.63
2022-11-18T17:07:20.461Z,12.50
2022-11-18T17:10:00.618Z,11.05
2022-11-18T17:12:33.465Z,10.73
2022-11-18T17:15:09.617Z,7.05
2022-11-18T17:17:45.331Z,8.23
2022-11-18T17:20:20.820Z,11.07
2022-11-18T17:22:58.647Z,8.80
2022-11-18T17:25:36.146Z,7.15
2022-11-18T17:28:11.287Z,7.55
2022-11-18T17:30:49.688Z,9.02
2022-11-18T17:33:28.041Z,7.03
2022-11-18T17:36:20.793Z,7.18
2022-11-18T17:39:04.147Z,12.23
2022-11-18T17:41:57.417Z,12.45
2022-11-18T17:44:35.512Z,8.25
2022-11-18T17:47:18.489Z,10.70
2022-11-18T17:50:00.749Z,8.32
2022-11-18T17:52:33.465Z,15.80
2022-11-18T17:55:07.555Z,9.40
2022-11-18T17:57:43.888Z,10.77
2022-11-18T18:00:17.917Z,13.20
2022-11-18T18:02:53.162Z,12.15
2022-11-18T18:05:26.245Z,9.20
2022-11-18T18:08:14.426Z,9.23
2022-11-18T18:10:49.535Z,9.05
2022-11-18T18:14:03.620Z,10.57
2022-11-18T18:16:38.883Z,12.00
2022-11-18T18:19:18.673Z,10.60
2022-11-18T18:21:55.298Z,9.45
2022-11-18T18:24:36.692Z,11.07
2022-11-18T18:27:12.770Z,10.52
2022-11-18T18:29:50.569Z,11.90
2022-11-18T18:32:27.661Z,11.75
2022-11-18T18:35:03.949Z,13.52
2022-11-18T18:37:39.395Z,11.20
2022-11-18T18:40:18.797Z,11.75
2022-11-18T18:42:57.199Z,9.45
2022-11-18T18:45:56.392Z,8.88
2022-11-18T18:48:35.870Z,11.05
2022-11-18T18:51:11.778Z,10.98
2022-11-18T18:53:53.331Z,11.70
2022-11-18T18:56:34.953Z,34.38
2022-11-18T18:59:11.645Z,17.33
2022-11-18T19:01:45.433Z,17.77
2022-11-18T19:04:21.419Z,9.80
2022-11-18T19:07:00.581Z,14.43
2022-11-18T19:09:41.157Z,13.13
2022-11-18T19:12:45.018Z,18.00
2022-11-18T19:15:20.803Z,12.68
2022-11-18T19:17:58.872Z,12.77
2022-11-18T19:20:42.195Z,11.45
2022-11-18T19:23:18.306Z,16.08
2022-11-18T19:26:07.097Z,9.75
2022-11-18T19:28:42.439Z,14.95
2022-11-18T19:31:20.383Z,9.07
2022-11-18T19:34:00.779Z,9.00
2022-11-18T19:36:43.324Z,13.65
2022-11-18T19:39:19.483Z,11.65
2022-11-18T19:41:53.746Z,8.80
2022-11-18T19:44:27.366Z,10.27
2022-11-18T19:47:10.691Z,10.00
2022-11-18T19:50:08.395Z,14.95
2022-11-18T19:52:47.274Z,11.43
2022-11-18T19:55:23.123Z,10.63
2022-11-18T19:58:00.420Z,12.57
2022-11-18T20:00:36.920Z,12.93
2022-11-18T20:03:09.804Z,11.32
2022-11-18T20:05:52.040Z,18.02
2022-11-18T20:08:25.804Z,12.20
2022-11-18T20:11:09.175Z,18.45
2022-11-18T20:13:51.965Z,20.23
2022-11-18T20:19:10.844Z,12.68
2022-11-18T20:21:45.109Z,12.48
2022-11-18T20:24:24.779Z,12.23
2022-11-18T20:27:01.171Z,18.02
2022-11-18T20:29:34.271Z,16.67
2022-11-18T20:32:10.396Z,21.92
2022-11-18T20:34:52.689Z,21.73
2022-11-18T20:37:28.111Z,17.80
2022-11-18T20:40:10.613Z,19.60
2022-11-18T20:43:07.219Z,17.60
2022-11-18T20:45:53.100Z,22.17
2022-11-18T20:48:29.263Z,22.70
2022-11-18T20:51:18.522Z,20.02
2022-11-18T20:53:55.106Z,18.63
2022-11-18T20:56:29.059Z,18.95
2022-11-18T20:59:02.720Z,15.52
2022-11-18T21:01:35.818Z,20.67
2022-11-18T21:04:12.354Z,18.25
2022-11-18T21:06:49.417Z,14.93
2022-11-18T21:09:22.278Z,15.93
2022-11-18T21:11:54.878Z,14.57
2022-11-18T21:14:31.020Z,12.60
2022-11-18T21:17:04.976Z,18.30
2022-11-18T21:19:44.620Z,17.27
2022-11-18T21:22:24.706Z,17.58
2022-11-18T21:24:57.400Z,24.23
2022-11-18T21:27:31.099Z,20.30
2022-11-18T21:30:09.738Z,18.35
2022-11-18T21:32:43.264Z,22.63
2022-11-18T21:35:23.880Z,20.90
2022-11-18T21:37:56.964Z,22.38
2022-11-18T21:40:47.692Z,23.95
2022-11-18T21:43:57.995Z,22.35
2022-11-18T21:46:29.946Z,11.27
2022-11-18T21:49:08.256Z,7.43
2022-11-18T21:51:43.365Z,5.55
2022-11-18T21:54:27.151Z,6.15
2022-11-18T21:57:13.446Z,5.47
2022-11-18T21:59:59.727Z,4.80
2022-11-18T22:02:38.765Z,4.00
2022-11-18T22:05:17.798Z,5.05
2022-11-18T22:07:53.485Z,5.38
2022-11-18T22:10:26.442Z,4.35
2022-11-18T22:12:59.165Z,5.75
2022-11-18T22:15:34.308Z,4.40
2022-11-18T22:18:10.048Z,4.90
2022-11-18T22:20:45.852Z,6.18
2022-11-18T22:23:21.872Z,6.00
2022-11-18T22:26:11.104Z,7.20
2022-11-18T22:28:58.591Z,7.57
2022-11-18T22:31:36.764Z,8.65
2022-11-18T22:34:14.848Z,9.13
2022-11-18T22:36:50.514Z,8.55
2022-11-18T22:39:26.582Z,8.82
2022-11-18T22:44:50.508Z,10.27
2022-11-18T22:47:23.752Z,9.90
2022-11-18T22:49:56.735Z,13.82
2022-11-18T22:52:29.518Z,10.95
2022-11-18T22:55:02.342Z,12.15
2022-11-18T22:57:37.381Z,12.15
2022-11-18T23:00:20.234Z,11.77
2022-11-18T23:02:56.551Z,14.45
2022-11-18T23:05:31.092Z,17.60
2022-11-18T23:08:14.630Z,15.50
2022-11-18T23:10:56.419Z,15.05
2022-11-18T23:13:49.329Z,16.23
2022-11-18T23:16:25.141Z,16.48
2022-11-18T23:18:57.882Z,18.13
2022-11-18T23:21:31.563Z,15.90
2022-11-18T23:24:05.027Z,16.70
2022-11-18T23:26:40.625Z,16.65
2022-11-18T23:29:17.941Z,15.98
2022-11-18T23:31:54.097Z,14.07
2022-11-18T23:34:27.104Z,13.65
2022-11-18T23:36:59.770Z,14.85
2022-11-18T23:39:36.946Z,11.50
2022-11-18T23:42:10.096Z,10.73
2022-11-18T23:45:20.938Z,10.07
2022-11-18T23:47:55.938Z,9.40
2022-11-18T23:50:36.521Z,15.73
2022-11-18T23:53:15.079Z,12.00
2022-11-18T23:55:50.964Z,13.07
2022-11-18T23:58:31.313Z,13.07
